createdAt,value
2018-01-01T00:01:55.437Z,9.00
2018-01-01T00:04:57.499Z,9.00
2018-01-01T00:07:59.554Z,9.00
2018-01-01T00:11:00.857Z,8.90
2018-01-01T00:14:02.227Z,9.00
2018-01-01T00:17:03.578Z,9.10
2018-01-01T00:20:04.879Z,8.90
2018-01-01T00:23:06.157Z,8.90
2018-01-01T00:26:07.518Z,9.00
2018-01-01T00:29:08.826Z,9.00
2018-01-01T00:32:10.914Z,8.80
2018-01-01T00:35:12.244Z,8.80
2018-01-01T00:38:14.308Z,8.70
2018-01-01T00:41:16.382Z,8.70
2018-01-01T00:44:17.671Z,8.70
2018-01-01T00:47:19.014Z,8.60
2018-01-01T00:50:20.319Z,8.50
2018-01-01T00:53:22.404Z,8.60
2018-01-01T00:56:23.711Z,8.60
2018-01-01T00:59:25.028Z,8.70
2018-01-01T01:02:26.346Z,8.70
2018-01-01T01:05:28.377Z,8.60
2018-01-01T01:08:29.677Z,8.60
2018-01-01T01:11:30.979Z,8.70
2018-01-01T01:14:32.294Z,8.80
2018-01-01T01:17:33.575Z,8.70
2018-01-01T01:20:34.911Z,8.70
2018-01-01T01:23:36.238Z,8.60
2018-01-01T01:26:37.580Z,8.60
2018-01-01T01:29:38.917Z,8.50
2018-01-01T01:32:40.965Z,8.40
2018-01-01T01:35:42.372Z,8.40
2018-01-01T01:38:43.671Z,8.40
2018-01-01T01:41:45.867Z,8.30
2018-01-01T01:44:47.159Z,8.20
2018-01-01T01:47:48.483Z,8.30
2018-01-01T01:50:49.756Z,8.30
2018-01-01T01:53:51.924Z,8.30
2018-01-01T01:56:53.488Z,8.40
2018-01-01T01:59:55.187Z,8.40
2018-01-01T02:02:57.273Z,8.30
2018-01-01T02:05:58.560Z,8.30
2018-01-01T02:08:59.896Z,8.30
2018-01-01T02:12:01.176Z,8.30
2018-01-01T02:15:02.516Z,8.30
2018-01-01T02:18:03.815Z,8.30
2018-01-01T02:21:05.167Z,8.30
2018-01-01T02:24:06.530Z,8.30
2018-01-01T02:27:07.839Z,8.30
2018-01-01T02:30:09.914Z,8.40
2018-01-01T02:33:11.964Z,8.40
2018-01-01T02:36:13.307Z,8.40
2018-01-01T02:39:14.607Z,8.40
2018-01-01T02:42:15.965Z,8.40
2018-01-01T02:45:17.272Z,8.50
2018-01-01T02:48:18.610Z,8.50
2018-01-01T02:51:19.960Z,8.40
2018-01-01T02:54:21.263Z,8.20
2018-01-01T02:57:22.604Z,8.50
2018-01-01T03:00:23.915Z,8.60
2018-01-01T03:03:25.263Z,8.50
2018-01-01T03:06:26.564Z,8.60
2018-01-01T03:09:29.540Z,8.60
2018-01-01T03:12:30.885Z,8.60
2018-01-01T03:15:32.908Z,8.50
2018-01-01T03:18:34.286Z,8.50
2018-01-01T03:21:35.548Z,8.50
2018-01-01T03:24:37.626Z,8.60
2018-01-01T03:27:38.922Z,8.60
2018-01-01T03:30:40.257Z,8.60
2018-01-01T03:33:41.603Z,8.60
2018-01-01T03:36:42.918Z,8.50
2018-01-01T03:39:44.996Z,8.60
2018-01-01T03:42:46.303Z,8.60
2018-01-01T03:45:47.627Z,8.50
2018-01-01T03:48:48.955Z,8.60
2018-01-01T03:51:50.395Z,8.60
2018-01-01T03:54:51.685Z,8.60
2018-01-01T03:57:53.011Z,8.60
2018-01-01T04:00:54.339Z,8.60
2018-01-01T04:03:56.385Z,8.50
2018-01-01T04:06:57.686Z,8.40
2018-01-01T04:09:58.956Z,8.50
2018-01-01T04:13:00.276Z,8.50
2018-01-01T04:16:01.579Z,8.50
2018-01-01T04:19:02.917Z,8.40
2018-01-01T04:22:04.252Z,8.50
2018-01-01T04:25:05.596Z,8.50
2018-01-01T04:28:06.904Z,8.50
2018-01-01T04:31:08.984Z,8.40
2018-01-01T04:34:10.294Z,8.40
2018-01-01T04:37:11.651Z,8.40
2018-01-01T04:40:12.915Z,8.40
2018-01-01T04:43:14.982Z,8.40
2018-01-01T04:46:17.044Z,8.40
2018-01-01T04:49:18.355Z,8.40
2018-01-01T04:52:19.690Z,8.40
2018-01-01T04:55:20.987Z,8.40
2018-01-01T04:58:22.311Z,8.30
2018-01-01T05:01:23.660Z,8.30
2018-01-01T05:04:24.984Z,8.20
2018-01-01T05:07:26.315Z,8.30
2018-01-01T05:10:27.608Z,8.20
2018-01-01T05:13:28.956Z,8.20
2018-01-01T05:16:30.267Z,8.20
2018-01-01T05:19:31.591Z,8.20
2018-01-01T05:22:32.952Z,8.20
2018-01-01T05:25:34.266Z,8.20
2018-01-01T05:28:35.567Z,8.20
2018-01-01T05:31:36.847Z,8.10
2018-01-01T05:34:38.170Z,8.20
2018-01-01T05:37:39.515Z,8.20
2018-01-01T05:40:41.554Z,8.10
2018-01-01T05:43:42.899Z,8.10
2018-01-01T05:46:44.202Z,8.10
2018-01-01T05:49:45.520Z,8.00
2018-01-01T05:52:47.562Z,8.10
2018-01-01T05:55:48.868Z,8.10
2018-01-01T05:58:50.257Z,8.00
2018-01-01T06:01:51.561Z,8.10
2018-01-01T06:04:52.900Z,8.10
2018-01-01T06:07:54.948Z,7.90
2018-01-01T06:10:56.231Z,7.90
2018-01-01T06:13:57.591Z,7.90
2018-01-01T06:16:58.876Z,7.90
2018-01-01T06:20:00.236Z,7.90
2018-01-01T06:23:01.538Z,7.80
2018-01-01T06:26:02.856Z,7.80
2018-01-01T06:29:04.902Z,7.80
2018-01-01T06:32:06.204Z,7.80
2018-01-01T06:35:07.559Z,7.70
2018-01-01T06:38:08.851Z,7.70
2018-01-01T06:41:10.187Z,7.60
2018-01-01T06:44:11.459Z,7.70
2018-01-01T06:47:12.882Z,7.70
2018-01-01T06:50:14.220Z,7.80
2018-01-01T06:53:15.544Z,7.70
2018-01-01T06:56:16.889Z,7.70
2018-01-01T06:59:18.912Z,7.70
2018-01-01T07:02:20.238Z,7.60
2018-01-01T07:05:21.596Z,7.70
2018-01-01T07:08:22.904Z,7.70
2018-01-01T07:11:24.238Z,7.60
2018-01-01T07:14:26.287Z,7.70
2018-01-01T07:17:27.591Z,7.60
2018-01-01T07:20:28.923Z,7.70
2018-01-01T07:23:30.240Z,7.70
2018-01-01T07:26:31.573Z,7.70
2018-01-01T07:29:32.890Z,7.60
2018-01-01T07:32:34.235Z,7.70
2018-01-01T07:35:35.540Z,7.60
2018-01-01T07:38:36.859Z,7.70
2018-01-01T07:41:38.218Z,7.70
2018-01-01T07:44:39.515Z,7.60
2018-01-01T07:47:41.578Z,7.60
2018-01-01T07:50:43.600Z,7.60
2018-01-01T07:53:44.935Z,7.50
2018-01-01T07:56:46.243Z,7.60
2018-01-01T07:59:48.298Z,7.50
2018-01-01T08:02:49.616Z,7.50
2018-01-01T08:05:50.884Z,7.60
2018-01-01T08:08:52.213Z,7.70
2018-01-01T08:11:53.515Z,7.60
2018-01-01T08:14:55.567Z,7.60
2018-01-01T08:17:56.879Z,7.60
2018-01-01T08:20:58.224Z,7.60
2018-01-01T08:23:59.539Z,7.70
2018-01-01T08:27:01.552Z,7.70
2018-01-01T08:30:02.902Z,7.70
2018-01-01T08:33:04.100Z,7.70
2018-01-01T08:36:06.125Z,7.80
2018-01-01T08:39:07.482Z,7.80
2018-01-01T08:42:08.774Z,7.70
2018-01-01T08:45:10.829Z,7.90
2018-01-01T08:48:12.882Z,7.80
2018-01-01T08:51:14.208Z,7.80
2018-01-01T08:54:15.590Z,7.90
2018-01-01T08:57:16.897Z,7.90
2018-01-01T09:00:18.260Z,7.90
2018-01-01T09:03:19.546Z,7.90
2018-01-01T09:06:21.625Z,8.00
2018-01-01T09:09:23.662Z,7.90
2018-01-01T09:12:24.997Z,7.90
2018-01-01T09:15:26.305Z,7.90
2018-01-01T09:18:27.692Z,7.90
2018-01-01T09:21:29.103Z,7.90
2018-01-01T09:24:30.423Z,7.90
2018-01-01T09:27:31.744Z,7.80
2018-01-01T09:30:33.088Z,7.80
2018-01-01T09:33:34.443Z,7.80
2018-01-01T09:36:35.776Z,7.90
2018-01-01T09:39:37.102Z,7.60
2018-01-01T09:42:39.215Z,7.70
2018-01-01T09:45:40.504Z,7.70
2018-01-01T09:48:42.577Z,7.70
2018-01-01T09:51:44.635Z,7.70
2018-01-01T09:54:45.976Z,7.70
2018-01-01T09:57:47.314Z,7.80
2018-01-01T10:00:48.645Z,8.00
2018-01-01T10:03:50.402Z,8.00
2018-01-01T10:06:52.043Z,7.90
2018-01-01T10:09:53.525Z,7.80
2018-01-01T10:12:55.756Z,7.80
2018-01-01T10:15:57.897Z,7.90
2018-01-01T10:18:59.259Z,7.90
2018-01-01T10:22:00.889Z,8.00
2018-01-01T10:25:02.186Z,7.90
2018-01-01T10:28:04.067Z,7.90
2018-01-01T10:31:05.407Z,7.90
2018-01-01T10:34:07.429Z,7.90
2018-01-01T10:37:09.191Z,7.80
2018-01-01T10:40:13.100Z,7.80
2018-01-01T10:43:15.179Z,7.70
2018-01-01T10:46:16.583Z,7.70
2018-01-01T10:49:18.896Z,7.80
2018-01-01T10:52:20.915Z,7.80
2018-01-01T10:55:22.883Z,7.30
2018-01-01T10:58:24.840Z,8.00
2018-01-01T11:01:26.747Z,7.90
2018-01-01T11:04:28.811Z,7.90
2018-01-01T11:07:32.306Z,7.90
2018-01-01T11:10:33.799Z,7.90
2018-01-01T11:13:36.492Z,7.90
2018-01-01T11:16:38.701Z,7.90
2018-01-01T11:19:39.984Z,8.00
2018-01-01T11:22:42.707Z,8.10
2018-01-01T11:25:44.268Z,8.20
2018-01-01T11:28:46.465Z,8.20
2018-01-01T11:31:47.803Z,8.20
2018-01-01T11:34:49.123Z,8.20
2018-01-01T11:37:50.604Z,8.20
2018-01-01T11:40:51.930Z,8.30
2018-01-01T11:43:53.813Z,8.30
2018-01-01T11:46:55.132Z,8.30
2018-01-01T11:49:57.277Z,8.20
2018-01-01T11:52:58.563Z,8.20
2018-01-01T11:55:59.869Z,8.30
2018-01-01T11:59:01.144Z,8.40
2018-01-01T12:02:03.250Z,8.50
2018-01-01T12:05:05.710Z,8.80
2018-01-01T12:08:08.496Z,8.70
2018-01-01T12:11:09.971Z,8.60
2018-01-01T12:14:11.910Z,8.60
2018-01-01T12:17:13.330Z,8.60
2018-01-01T12:20:15.572Z,8.50
2018-01-01T12:23:17.198Z,8.50
2018-01-01T12:26:19.752Z,8.50
2018-01-01T12:29:21.824Z,8.50
2018-01-01T12:32:24.123Z,8.50
2018-01-01T12:35:25.806Z,8.50
2018-01-01T12:38:28.454Z,8.60
2018-01-01T12:41:31.175Z,8.60
2018-01-01T12:44:33.333Z,8.60
2018-01-01T12:47:35.343Z,8.60
2018-01-01T12:50:36.685Z,8.60
2018-01-01T12:53:38.060Z,8.60
2018-01-01T12:56:39.334Z,8.60
2018-01-01T12:59:40.647Z,8.60
2018-01-01T13:02:42.707Z,8.70
2018-01-01T13:05:44.005Z,8.60
2018-01-01T13:08:45.352Z,8.70
2018-01-01T13:11:46.626Z,8.70
2018-01-01T13:14:47.945Z,8.60
2018-01-01T13:17:49.262Z,10.70
2018-01-01T13:20:50.599Z,9.70
2018-01-01T13:23:51.887Z,9.10
2018-01-01T13:26:53.252Z,8.80
2018-01-01T13:29:54.603Z,8.70
2018-01-01T13:32:55.913Z,8.70
2018-01-01T13:35:57.228Z,8.60
2018-01-01T13:38:58.529Z,8.60
2018-01-01T13:42:00.622Z,8.50
2018-01-01T13:45:01.917Z,8.50
2018-01-01T13:48:03.211Z,8.50
2018-01-01T13:51:04.540Z,8.50
2018-01-01T13:54:06.595Z,8.40
2018-01-01T13:57:07.952Z,8.40
2018-01-01T14:00:09.281Z,8.40
2018-01-01T14:03:10.563Z,8.40
2018-01-01T14:06:12.619Z,8.40
2018-01-01T14:09:14.661Z,8.40
2018-01-01T14:12:16.000Z,8.40
2018-01-01T14:15:17.300Z,8.40
2018-01-01T14:18:19.398Z,8.40
2018-01-01T14:21:20.766Z,8.30
2018-01-01T14:24:22.131Z,8.40
2018-01-01T14:27:23.451Z,8.30
2018-01-01T14:30:24.767Z,8.20
2018-01-01T14:33:26.874Z,8.40
2018-01-01T14:36:28.194Z,8.30
2018-01-01T14:39:30.238Z,8.30
2018-01-01T14:42:31.604Z,8.30
2018-01-01T14:45:33.662Z,8.30
2018-01-01T14:48:35.750Z,8.20
2018-01-01T14:51:37.846Z,8.30
2018-01-01T14:54:39.133Z,8.30
2018-01-01T14:57:40.471Z,8.30
2018-01-01T15:00:41.768Z,8.30
2018-01-01T15:03:43.858Z,8.20
2018-01-01T15:06:45.192Z,8.20
2018-01-01T15:09:46.551Z,8.30
2018-01-01T15:12:47.910Z,8.30
2018-01-01T15:15:49.218Z,8.30
2018-01-01T15:18:51.292Z,8.30
2018-01-01T15:21:53.404Z,8.30
2018-01-01T15:24:54.687Z,8.20
2018-01-01T15:27:56.012Z,8.20
2018-01-01T15:30:57.323Z,8.20
2018-01-01T15:33:59.395Z,8.20
2018-01-01T15:37:00.771Z,8.20
2018-01-01T15:40:02.091Z,8.20
2018-01-01T15:43:04.165Z,8.20
2018-01-01T15:46:05.475Z,8.20
2018-01-01T15:49:06.805Z,8.20
2018-01-01T15:52:08.140Z,8.00
2018-01-01T15:55:09.461Z,8.00
2018-01-01T15:58:11.522Z,8.00
2018-01-01T16:01:13.598Z,8.00
2018-01-01T16:04:14.968Z,8.00
2018-01-01T16:07:16.292Z,8.00
2018-01-01T16:10:18.336Z,8.00
2018-01-01T16:13:19.656Z,8.00
2018-01-01T16:16:20.955Z,8.00
2018-01-01T16:19:23.049Z,7.90
2018-01-01T16:22:24.375Z,7.80
2018-01-01T16:25:26.422Z,7.70
2018-01-01T16:28:27.742Z,7.70
2018-01-01T16:31:29.078Z,7.70
2018-01-01T16:34:30.425Z,7.80
2018-01-01T16:37:31.751Z,7.80
2018-01-01T16:40:33.827Z,7.70
2018-01-01T16:43:35.132Z,7.70
2018-01-01T16:46:36.522Z,7.70
2018-01-01T16:49:38.633Z,7.50
2018-01-01T16:52:39.979Z,7.50
2018-01-01T16:55:41.296Z,7.50
2018-01-01T16:58:42.666Z,7.60
2018-01-01T17:01:44.087Z,7.50
2018-01-01T17:04:45.400Z,7.60
2018-01-01T17:07:46.743Z,7.50
2018-01-01T17:10:48.080Z,7.60
2018-01-01T17:13:49.434Z,7.60
2018-01-01T17:16:50.777Z,7.50
2018-01-01T17:19:52.124Z,12.70
2018-01-01T17:22:53.467Z,16.80
2018-01-01T17:26:07.872Z,13.80
2018-01-01T17:29:09.249Z,11.50
2018-01-01T17:32:10.613Z,9.80
2018-01-01T17:35:12.016Z,9.30
2018-01-01T17:38:13.327Z,9.00
2018-01-01T17:41:14.619Z,8.60
2018-01-01T17:44:15.919Z,8.50
2018-01-01T17:47:17.189Z,8.40
2018-01-01T17:50:19.941Z,8.10
2018-01-01T17:53:22.200Z,8.00
2018-01-01T17:56:23.488Z,8.10
2018-01-01T17:59:26.815Z,8.10
2018-01-01T18:02:28.289Z,8.00
2018-01-01T18:05:31.024Z,8.00
2018-01-01T18:08:33.495Z,7.80
2018-01-01T18:11:36.467Z,7.60
2018-01-01T18:14:38.351Z,7.60
2018-01-01T18:17:39.789Z,7.70
2018-01-01T18:20:41.071Z,7.80
2018-01-01T18:23:43.482Z,7.90
2018-01-01T18:26:45.828Z,7.80
2018-01-01T18:29:47.414Z,7.80
2018-01-01T18:32:50.019Z,7.80
2018-01-01T18:35:53.040Z,7.90
2018-01-01T18:38:55.655Z,7.90
2018-01-01T18:41:56.996Z,7.90
2018-01-01T18:44:58.724Z,7.80
2018-01-01T18:48:00.122Z,7.80
2018-01-01T18:51:01.392Z,7.90
2018-01-01T18:54:03.922Z,8.00
2018-01-01T18:57:05.259Z,8.00
2018-01-01T19:00:06.545Z,7.90
2018-01-01T19:03:08.514Z,8.40
2018-01-01T19:06:09.843Z,8.20
2018-01-01T19:09:11.447Z,8.10
2018-01-01T19:12:12.681Z,8.00
2018-01-01T19:15:14.961Z,8.10
2018-01-01T19:18:16.181Z,8.00
2018-01-01T19:21:17.789Z,7.80
2018-01-01T19:24:19.771Z,7.60
2018-01-01T19:27:21.117Z,7.60
2018-01-01T19:30:23.128Z,7.80
2018-01-01T19:33:24.350Z,7.80
2018-01-01T19:36:25.680Z,7.70
2018-01-01T19:39:27.728Z,7.70
2018-01-01T19:42:28.998Z,7.70
2018-01-01T19:45:30.339Z,7.70
2018-01-01T19:48:32.360Z,7.80
2018-01-01T19:51:33.911Z,7.80
2018-01-01T19:54:35.203Z,7.80
2018-01-01T19:57:37.249Z,7.80
2018-01-01T20:00:38.747Z,7.70
2018-01-01T20:03:40.030Z,7.70
2018-01-01T20:06:41.497Z,7.70
2018-01-01T20:09:43.563Z,7.50
2018-01-01T20:12:52.053Z,7.20
2018-01-01T20:15:53.506Z,7.30
2018-01-01T20:18:54.784Z,7.20
2018-01-01T20:21:56.413Z,7.10
2018-01-01T20:24:57.673Z,7.10
2018-01-01T20:28:01.093Z,7.30
2018-01-01T20:31:03.129Z,7.20
2018-01-01T20:34:04.402Z,7.20
2018-01-01T20:37:05.653Z,7.20
2018-01-01T20:40:07.264Z,7.20
2018-01-01T20:43:08.661Z,7.30
2018-01-01T20:46:09.952Z,7.40
2018-01-01T20:49:11.611Z,7.40
2018-01-01T20:52:13.112Z,7.40
2018-01-01T20:55:14.389Z,7.40
2018-01-01T20:58:16.391Z,7.50
2018-01-01T21:01:17.708Z,7.50
2018-01-01T21:04:19.831Z,7.50
2018-01-01T21:07:21.077Z,7.40
2018-01-01T21:10:22.336Z,7.40
2018-01-01T21:13:23.552Z,7.50
2018-01-01T21:16:24.860Z,7.40
2018-01-01T21:19:26.106Z,7.40
2018-01-01T21:22:28.085Z,7.30
2018-01-01T21:25:30.468Z,7.50
2018-01-01T21:28:32.876Z,7.50
2018-01-01T21:31:34.195Z,7.80
2018-01-01T21:34:35.576Z,7.60
2018-01-01T21:37:37.015Z,7.50
2018-01-01T21:40:38.578Z,7.40
2018-01-01T21:43:39.912Z,7.30
2018-01-01T21:46:41.184Z,7.30
2018-01-01T21:49:42.421Z,7.20
2018-01-01T21:52:43.899Z,7.10
2018-01-01T21:55:45.205Z,6.90
2018-01-01T21:58:46.491Z,6.60
2018-01-01T22:01:47.710Z,6.80
2018-01-01T22:04:49.041Z,6.80
2018-01-01T22:07:51.206Z,6.80
2018-01-01T22:10:52.458Z,6.80
2018-01-01T22:13:54.435Z,6.80
2018-01-01T22:16:56.059Z,6.80
2018-01-01T22:19:58.102Z,6.80
2018-01-01T22:22:59.365Z,6.80
2018-01-01T22:26:00.636Z,6.80
2018-01-01T22:29:02.731Z,6.90
2018-01-01T22:32:03.993Z,6.80
2018-01-01T22:35:05.194Z,6.90
2018-01-01T22:38:06.475Z,6.90
2018-01-01T22:41:07.709Z,6.90
2018-01-01T22:44:09.704Z,6.70
2018-01-01T22:47:10.959Z,6.70
2018-01-01T22:50:12.221Z,6.80
2018-01-01T22:53:13.482Z,6.80
2018-01-01T22:56:14.724Z,6.80
2018-01-01T22:59:15.964Z,6.90
2018-01-01T23:02:17.240Z,6.90
2018-01-01T23:05:18.488Z,6.80
2018-01-01T23:08:19.727Z,6.90
2018-01-01T23:11:21.008Z,6.90
2018-01-01T23:14:23.019Z,6.70
2018-01-01T23:17:25.060Z,6.70
2018-01-01T23:20:26.468Z,6.60
2018-01-01T23:23:27.804Z,6.60
2018-01-01T23:26:29.367Z,6.60
2018-01-01T23:29:30.644Z,6.50
2018-01-01T23:32:32.667Z,6.50
2018-01-01T23:35:34.039Z,6.50
2018-01-01T23:38:35.318Z,6.50
2018-01-01T23:41:36.607Z,6.50
2018-01-01T23:44:37.891Z,6.50
2018-01-01T23:47:39.961Z,6.40
2018-01-01T23:50:41.949Z,6.40
2018-01-01T23:53:43.224Z,6.40
2018-01-01T23:56:44.512Z,6.20
2018-01-01T23:59:46.544Z,6.20
